sensor_id;sensor_type;location;lat;lon;timestamp;P1;durP1;ratioP1;P2;durP2;ratioP2
11535;SDS011;5824;49.336;8.652;2023-05-07T00:02:06;6.53;;;3.43;;
11535;SDS011;5824;49.336;8.652;2023-05-07T00:04:32;4.47;;;2.90;;
11535;SDS011;5824;49.336;8.652;2023-05-07T00:07:01;5.27;;;3.00;;
11535;SDS011;5824;49.336;8.652;2023-05-07T00:09:27;4.73;;;3.10;;
11535;SDS011;5824;49.336;8.652;2023-05-07T00:11:53;3.50;;;3.13;;
11535;SDS011;5824;49.336;8.652;2023-05-07T00:14:18;3.93;;;3.20;;
11535;SDS011;5824;49.336;8.652;2023-05-07T00:16:44;4.07;;;2.90;;
11535;SDS011;5824;49.336;8.652;2023-05-07T00:19:09;4.13;;;2.97;;
11535;SDS011;5824;49.336;8.652;2023-05-07T00:21:35;3.20;;;2.80;;
11535;SDS011;5824;49.336;8.652;2023-05-07T00:24:00;4.07;;;3.00;;
11535;SDS011;5824;49.336;8.652;2023-05-07T00:26:26;4.70;;;3.40;;
11535;SDS011;5824;49.336;8.652;2023-05-07T00:28:51;3.20;;;2.80;;
11535;SDS011;5824;49.336;8.652;2023-05-07T00:31:17;4.70;;;3.07;;
11535;SDS011;5824;49.336;8.652;2023-05-07T00:33:42;4.27;;;3.00;;
11535;SDS011;5824;49.336;8.652;2023-05-07T00:36:08;5.30;;;2.90;;
11535;SDS011;5824;49.336;8.652;2023-05-07T00:38:33;4.93;;;3.17;;
11535;SDS011;5824;49.336;8.652;2023-05-07T00:40:59;3.90;;;2.77;;
11535;SDS011;5824;49.336;8.652;2023-05-07T00:43:24;3.73;;;3.03;;
11535;SDS011;5824;49.336;8.652;2023-05-07T00:45:50;7.40;;;3.03;;
11535;SDS011;5824;49.336;8.652;2023-05-07T00:48:16;3.57;;;2.70;;
11535;SDS011;5824;49.336;8.652;2023-05-07T00:50:42;2.53;;;2.33;;
11535;SDS011;5824;49.336;8.652;2023-05-07T00:53:07;5.37;;;2.90;;
11535;SDS011;5824;49.336;8.652;2023-05-07T00:55:33;5.03;;;3.43;;
11535;SDS011;5824;49.336;8.652;2023-05-07T00:58:00;4.77;;;2.50;;
11535;SDS011;5824;49.336;8.652;2023-05-07T01:00:26;4.20;;;2.77;;
11535;SDS011;5824;49.336;8.652;2023-05-07T01:02:51;3.23;;;2.93;;
11535;SDS011;5824;49.336;8.652;2023-05-07T01:05:18;4.93;;;2.97;;
11535;SDS011;5824;49.336;8.652;2023-05-07T01:07:45;3.00;;;2.70;;
11535;SDS011;5824;49.336;8.652;2023-05-07T01:10:11;3.33;;;3.03;;
11535;SDS011;5824;49.336;8.652;2023-05-07T01:12:37;4.67;;;3.27;;
11535;SDS011;5824;49.336;8.652;2023-05-07T01:15:04;4.50;;;3.03;;
11535;SDS011;5824;49.336;8.652;2023-05-07T01:17:36;4.43;;;2.53;;
11535;SDS011;5824;49.336;8.652;2023-05-07T01:20:03;3.30;;;2.80;;
11535;SDS011;5824;49.336;8.652;2023-05-07T01:22:30;3.53;;;2.90;;
11535;SDS011;5824;49.336;8.652;2023-05-07T01:24:58;3.20;;;2.80;;
11535;SDS011;5824;49.336;8.652;2023-05-07T01:27:24;3.93;;;2.70;;
11535;SDS011;5824;49.336;8.652;2023-05-07T01:29:50;3.23;;;2.90;;
11535;SDS011;5824;49.336;8.652;2023-05-07T01:32:16;4.07;;;2.90;;
11535;SDS011;5824;49.336;8.652;2023-05-07T01:34:46;3.60;;;2.67;;
11535;SDS011;5824;49.336;8.652;2023-05-07T01:37:14;4.33;;;2.60;;
11535;SDS011;5824;49.336;8.652;2023-05-07T01:39:40;4.07;;;2.57;;
11535;SDS011;5824;49.336;8.652;2023-05-07T01:42:07;3.40;;;2.73;;
11535;SDS011;5824;49.336;8.652;2023-05-07T01:44:32;3.03;;;2.50;;
11535;SDS011;5824;49.336;8.652;2023-05-07T01:46:58;3.17;;;2.73;;
11535;SDS011;5824;49.336;8.652;2023-05-07T01:49:24;3.30;;;2.67;;
11535;SDS011;5824;49.336;8.652;2023-05-07T01:51:51;5.40;;;2.63;;
11535;SDS011;5824;49.336;8.652;2023-05-07T01:54:16;3.77;;;2.73;;
11535;SDS011;5824;49.336;8.652;2023-05-07T01:56:42;4.40;;;3.23;;
11535;SDS011;5824;49.336;8.652;2023-05-07T01:59:07;4.57;;;2.70;;
11535;SDS011;5824;49.336;8.652;2023-05-07T02:01:33;6.10;;;2.60;;
11535;SDS011;5824;49.336;8.652;2023-05-07T02:03:58;2.50;;;2.30;;
11535;SDS011;5824;49.336;8.652;2023-05-07T02:06:24;3.90;;;2.80;;
11535;SDS011;5824;49.336;8.652;2023-05-07T02:08:49;5.13;;;2.50;;
11535;SDS011;5824;49.336;8.652;2023-05-07T02:11:15;3.77;;;2.63;;
11535;SDS011;5824;49.336;8.652;2023-05-07T02:13:41;3.70;;;2.67;;
11535;SDS011;5824;49.336;8.652;2023-05-07T02:16:06;3.67;;;2.60;;
11535;SDS011;5824;49.336;8.652;2023-05-07T02:18:32;3.30;;;2.70;;
11535;SDS011;5824;49.336;8.652;2023-05-07T02:20:58;2.93;;;2.20;;
11535;SDS011;5824;49.336;8.652;2023-05-07T02:23:23;2.30;;;1.90;;
11535;SDS011;5824;49.336;8.652;2023-05-07T02:25:49;2.93;;;2.20;;
11535;SDS011;5824;49.336;8.652;2023-05-07T02:28:15;3.90;;;2.30;;
11535;SDS011;5824;49.336;8.652;2023-05-07T02:30:41;4.80;;;2.50;;
11535;SDS011;5824;49.336;8.652;2023-05-07T02:33:06;3.17;;;2.30;;
11535;SDS011;5824;49.336;8.652;2023-05-07T02:35:33;4.00;;;2.20;;
11535;SDS011;5824;49.336;8.652;2023-05-07T02:37:58;3.23;;;2.40;;
11535;SDS011;5824;49.336;8.652;2023-05-07T02:40:24;5.03;;;2.77;;
11535;SDS011;5824;49.336;8.652;2023-05-07T02:42:49;3.33;;;2.60;;
11535;SDS011;5824;49.336;8.652;2023-05-07T02:45:15;3.60;;;2.63;;
11535;SDS011;5824;49.336;8.652;2023-05-07T02:47:41;4.47;;;2.90;;
11535;SDS011;5824;49.336;8.652;2023-05-07T02:50:06;6.60;;;3.00;;
11535;SDS011;5824;49.336;8.652;2023-05-07T02:52:32;2.90;;;2.60;;
11535;SDS011;5824;49.336;8.652;2023-05-07T02:54:58;2.70;;;2.50;;
11535;SDS011;5824;49.336;8.652;2023-05-07T02:57:23;2.73;;;2.30;;
11535;SDS011;5824;49.336;8.652;2023-05-07T02:59:48;5.40;;;2.63;;
11535;SDS011;5824;49.336;8.652;2023-05-07T03:02:14;4.93;;;2.57;;
11535;SDS011;5824;49.336;8.652;2023-05-07T03:04:40;3.60;;;2.97;;
11535;SDS011;5824;49.336;8.652;2023-05-07T03:07:06;3.30;;;3.00;;
11535;SDS011;5824;49.336;8.652;2023-05-07T03:09:31;5.87;;;4.47;;
11535;SDS011;5824;49.336;8.652;2023-05-07T03:11:57;5.90;;;3.33;;
11535;SDS011;5824;49.336;8.652;2023-05-07T03:14:22;10.90;;;3.80;;
11535;SDS011;5824;49.336;8.652;2023-05-07T03:16:48;5.70;;;3.70;;
11535;SDS011;5824;49.336;8.652;2023-05-07T03:19:14;5.57;;;3.90;;
11535;SDS011;5824;49.336;8.652;2023-05-07T03:21:40;5.87;;;4.23;;
11535;SDS011;5824;49.336;8.652;2023-05-07T03:24:06;5.60;;;4.57;;
11535;SDS011;5824;49.336;8.652;2023-05-07T03:26:31;6.03;;;4.47;;
11535;SDS011;5824;49.336;8.652;2023-05-07T03:28:57;6.83;;;4.00;;
11535;SDS011;5824;49.336;8.652;2023-05-07T03:31:22;6.60;;;4.10;;
11535;SDS011;5824;49.336;8.652;2023-05-07T03:33:51;6.20;;;4.97;;
11535;SDS011;5824;49.336;8.652;2023-05-07T03:36:18;9.50;;;4.60;;
11535;SDS011;5824;49.336;8.652;2023-05-07T03:38:44;8.67;;;5.13;;
11535;SDS011;5824;49.336;8.652;2023-05-07T03:41:09;6.40;;;5.20;;
11535;SDS011;5824;49.336;8.652;2023-05-07T03:43:35;7.63;;;5.03;;
11535;SDS011;5824;49.336;8.652;2023-05-07T03:46:00;7.70;;;4.70;;
11535;SDS011;5824;49.336;8.652;2023-05-07T03:48:26;9.03;;;5.37;;
11535;SDS011;5824;49.336;8.652;2023-05-07T03:50:51;9.20;;;5.10;;
11535;SDS011;5824;49.336;8.652;2023-05-07T03:53:17;6.07;;;4.80;;
11535;SDS011;5824;49.336;8.652;2023-05-07T03:55:42;6.17;;;4.87;;
11535;SDS011;5824;49.336;8.652;2023-05-07T03:58:08;12.20;;;5.10;;
11535;SDS011;5824;49.336;8.652;2023-05-07T04:00:33;10.10;;;4.30;;
11535;SDS011;5824;49.336;8.652;2023-05-07T04:03:03;5.20;;;4.37;;
11535;SDS011;5824;49.336;8.652;2023-05-07T04:05:29;4.83;;;4.33;;
11535;SDS011;5824;49.336;8.652;2023-05-07T04:07:55;6.03;;;4.70;;
11535;SDS011;5824;49.336;8.652;2023-05-07T04:10:21;7.13;;;5.67;;
11535;SDS011;5824;49.336;8.652;2023-05-07T04:12:46;8.73;;;5.60;;
11535;SDS011;5824;49.336;8.652;2023-05-07T04:15:12;6.90;;;5.20;;
11535;SDS011;5824;49.336;8.652;2023-05-07T04:17:37;9.13;;;5.27;;
11535;SDS011;5824;49.336;8.652;2023-05-07T04:20:03;6.20;;;5.40;;
11535;SDS011;5824;49.336;8.652;2023-05-07T04:22:29;8.83;;;5.13;;
11535;SDS011;5824;49.336;8.652;2023-05-07T04:24:55;8.27;;;5.27;;
11535;SDS011;5824;49.336;8.652;2023-05-07T04:27:21;7.93;;;5.90;;
11535;SDS011;5824;49.336;8.652;2023-05-07T04:29:46;11.77;;;5.33;;
11535;SDS011;5824;49.336;8.652;2023-05-07T04:32:12;11.53;;;5.30;;
11535;SDS011;5824;49.336;8.652;2023-05-07T04:34:38;6.23;;;4.97;;
11535;SDS011;5824;49.336;8.652;2023-05-07T04:37:03;7.10;;;5.50;;
11535;SDS011;5824;49.336;8.652;2023-05-07T04:39:29;7.93;;;4.57;;
11535;SDS011;5824;49.336;8.652;2023-05-07T04:41:54;9.93;;;5.30;;
11535;SDS011;5824;49.336;8.652;2023-05-07T04:44:20;6.40;;;4.60;;
11535;SDS011;5824;49.336;8.652;2023-05-07T04:46:46;5.37;;;4.70;;
11535;SDS011;5824;49.336;8.652;2023-05-07T04:49:11;11.30;;;5.90;;
11535;SDS011;5824;49.336;8.652;2023-05-07T04:51:37;7.93;;;4.60;;
11535;SDS011;5824;49.336;8.652;2023-05-07T04:54:03;8.77;;;5.30;;
11535;SDS011;5824;49.336;8.652;2023-05-07T04:56:29;7.60;;;5.53;;
11535;SDS011;5824;49.336;8.652;2023-05-07T04:58:55;10.50;;;6.67;;
11535;SDS011;5824;49.336;8.652;2023-05-07T05:01:20;7.30;;;6.00;;
11535;SDS011;5824;49.336;8.652;2023-05-07T05:03:46;8.00;;;6.10;;
11535;SDS011;5824;49.336;8.652;2023-05-07T05:06:11;6.80;;;5.80;;
11535;SDS011;5824;49.336;8.652;2023-05-07T05:08:37;7.70;;;6.50;;
11535;SDS011;5824;49.336;8.652;2023-05-07T05:11:02;8.80;;;7.07;;
11535;SDS011;5824;49.336;8.652;2023-05-07T05:13:28;11.60;;;7.00;;
11535;SDS011;5824;49.336;8.652;2023-05-07T05:15:55;9.93;;;7.03;;
11535;SDS011;5824;49.336;8.652;2023-05-07T05:18:20;9.00;;;6.60;;
11535;SDS011;5824;49.336;8.652;2023-05-07T05:20:46;8.20;;;6.07;;
11535;SDS011;5824;49.336;8.652;2023-05-07T05:23:11;9.87;;;6.20;;
11535;SDS011;5824;49.336;8.652;2023-05-07T05:25:37;9.63;;;6.47;;
11535;SDS011;5824;49.336;8.652;2023-05-07T05:28:04;11.33;;;6.00;;
11535;SDS011;5824;49.336;8.652;2023-05-07T05:30:29;6.90;;;6.20;;
11535;SDS011;5824;49.336;8.652;2023-05-07T05:32:55;7.33;;;5.87;;
11535;SDS011;5824;49.336;8.652;2023-05-07T05:35:21;8.90;;;5.47;;
11535;SDS011;5824;49.336;8.652;2023-05-07T05:37:46;8.20;;;5.63;;
11535;SDS011;5824;49.336;8.652;2023-05-07T05:40:13;7.17;;;4.30;;
11535;SDS011;5824;49.336;8.652;2023-05-07T05:42:38;3.73;;;2.80;;
11535;SDS011;5824;49.336;8.652;2023-05-07T05:45:04;2.50;;;2.20;;
11535;SDS011;5824;49.336;8.652;2023-05-07T05:47:30;3.60;;;2.40;;
11535;SDS011;5824;49.336;8.652;2023-05-07T05:49:55;7.23;;;2.87;;
11535;SDS011;5824;49.336;8.652;2023-05-07T05:52:21;4.40;;;3.37;;
11535;SDS011;5824;49.336;8.652;2023-05-07T05:54:48;5.23;;;3.00;;
11535;SDS011;5824;49.336;8.652;2023-05-07T05:57:14;3.80;;;2.70;;
11535;SDS011;5824;49.336;8.652;2023-05-07T05:59:40;7.87;;;4.43;;
11535;SDS011;5824;49.336;8.652;2023-05-07T06:02:05;4.03;;;2.90;;
11535;SDS011;5824;49.336;8.652;2023-05-07T06:04:31;9.80;;;3.10;;
11535;SDS011;5824;49.336;8.652;2023-05-07T06:06:57;3.70;;;3.00;;
11535;SDS011;5824;49.336;8.652;2023-05-07T06:09:22;4.80;;;3.30;;
11535;SDS011;5824;49.336;8.652;2023-05-07T06:11:48;7.23;;;2.93;;
11535;SDS011;5824;49.336;8.652;2023-05-07T06:14:13;3.47;;;2.63;;
11535;SDS011;5824;49.336;8.652;2023-05-07T06:16:39;4.03;;;2.77;;
11535;SDS011;5824;49.336;8.652;2023-05-07T06:19:05;4.03;;;3.00;;
11535;SDS011;5824;49.336;8.652;2023-05-07T06:21:30;5.47;;;2.80;;
11535;SDS011;5824;49.336;8.652;2023-05-07T06:23:56;5.53;;;2.70;;
11535;SDS011;5824;49.336;8.652;2023-05-07T06:26:21;6.23;;;2.80;;
11535;SDS011;5824;49.336;8.652;2023-05-07T06:28:47;5.80;;;3.20;;
11535;SDS011;5824;49.336;8.652;2023-05-07T06:31:16;5.67;;;2.83;;
11535;SDS011;5824;49.336;8.652;2023-05-07T06:33:45;4.93;;;2.70;;
11535;SDS011;5824;49.336;8.652;2023-05-07T06:36:11;4.73;;;2.87;;
11535;SDS011;5824;49.336;8.652;2023-05-07T06:38:36;3.57;;;2.63;;
11535;SDS011;5824;49.336;8.652;2023-05-07T06:41:02;3.70;;;2.60;;
11535;SDS011;5824;49.336;8.652;2023-05-07T06:43:28;4.57;;;2.88;;
11535;SDS011;5824;49.336;8.652;2023-05-07T06:45:53;5.10;;;2.80;;
11535;SDS011;5824;49.336;8.652;2023-05-07T06:48:19;4.00;;;2.80;;
11535;SDS011;5824;49.336;8.652;2023-05-07T06:50:44;4.53;;;2.93;;
11535;SDS011;5824;49.336;8.652;2023-05-07T06:53:10;3.40;;;2.73;;
11535;SDS011;5824;49.336;8.652;2023-05-07T06:55:36;5.60;;;3.67;;
11535;SDS011;5824;49.336;8.652;2023-05-07T06:58:03;3.53;;;2.47;;
11535;SDS011;5824;49.336;8.652;2023-05-07T07:00:28;4.97;;;3.10;;
11535;SDS011;5824;49.336;8.652;2023-05-07T07:02:55;5.00;;;3.13;;
11535;SDS011;5824;49.336;8.652;2023-05-07T07:05:20;5.00;;;2.80;;
11535;SDS011;5824;49.336;8.652;2023-05-07T07:07:46;4.30;;;2.60;;
11535;SDS011;5824;49.336;8.652;2023-05-07T07:10:17;7.30;;;4.37;;
11535;SDS011;5824;49.336;8.652;2023-05-07T07:12:46;5.30;;;3.60;;
11535;SDS011;5824;49.336;8.652;2023-05-07T07:15:12;4.57;;;2.87;;
11535;SDS011;5824;49.336;8.652;2023-05-07T07:17:38;4.43;;;2.97;;
11535;SDS011;5824;49.336;8.652;2023-05-07T07:20:04;4.00;;;3.20;;
11535;SDS011;5824;49.336;8.652;2023-05-07T07:22:30;4.23;;;3.13;;
11535;SDS011;5824;49.336;8.652;2023-05-07T07:24:55;3.83;;;2.87;;
11535;SDS011;5824;49.336;8.652;2023-05-07T07:27:21;4.43;;;3.13;;
11535;SDS011;5824;49.336;8.652;2023-05-07T07:29:47;4.40;;;3.10;;
11535;SDS011;5824;49.336;8.652;2023-05-07T07:32:12;4.70;;;2.90;;
11535;SDS011;5824;49.336;8.652;2023-05-07T07:34:38;4.70;;;2.93;;
11535;SDS011;5824;49.336;8.652;2023-05-07T07:37:03;4.70;;;3.17;;
11535;SDS011;5824;49.336;8.652;2023-05-07T07:39:31;4.30;;;2.97;;
11535;SDS011;5824;49.336;8.652;2023-05-07T07:41:57;3.97;;;2.60;;
11535;SDS011;5824;49.336;8.652;2023-05-07T07:44:22;4.43;;;2.83;;
11535;SDS011;5824;49.336;8.652;2023-05-07T07:46:48;4.20;;;2.80;;
11535;SDS011;5824;49.336;8.652;2023-05-07T07:49:14;4.30;;;2.80;;
11535;SDS011;5824;49.336;8.652;2023-05-07T07:51:39;6.00;;;3.20;;
11535;SDS011;5824;49.336;8.652;2023-05-07T07:54:05;3.53;;;2.80;;
11535;SDS011;5824;49.336;8.652;2023-05-07T07:56:32;8.03;;;2.70;;
11535;SDS011;5824;49.336;8.652;2023-05-07T07:59:00;4.67;;;2.80;;
11535;SDS011;5824;49.336;8.652;2023-05-07T08:01:26;5.53;;;2.93;;
11535;SDS011;5824;49.336;8.652;2023-05-07T08:03:54;4.57;;;2.87;;
11535;SDS011;5824;49.336;8.652;2023-05-07T08:06:20;4.90;;;2.80;;
11535;SDS011;5824;49.336;8.652;2023-05-07T08:08:45;6.30;;;3.00;;
11535;SDS011;5824;49.336;8.652;2023-05-07T08:11:11;3.60;;;2.80;;
11535;SDS011;5824;49.336;8.652;2023-05-07T08:13:36;4.07;;;2.80;;
11535;SDS011;5824;49.336;8.652;2023-05-07T08:16:03;3.43;;;2.57;;
11535;SDS011;5824;49.336;8.652;2023-05-07T08:18:29;4.50;;;2.60;;
11535;SDS011;5824;49.336;8.652;2023-05-07T08:20:54;6.20;;;3.10;;
11535;SDS011;5824;49.336;8.652;2023-05-07T08:23:20;3.37;;;2.50;;
11535;SDS011;5824;49.336;8.652;2023-05-07T08:25:46;6.30;;;2.90;;
11535;SDS011;5824;49.336;8.652;2023-05-07T08:28:12;3.93;;;2.70;;
11535;SDS011;5824;49.336;8.652;2023-05-07T08:30:37;5.23;;;2.83;;
11535;SDS011;5824;49.336;8.652;2023-05-07T08:33:03;5.00;;;3.20;;
11535;SDS011;5824;49.336;8.652;2023-05-07T08:35:28;4.37;;;3.10;;
11535;SDS011;5824;49.336;8.652;2023-05-07T08:37:54;3.50;;;2.93;;
11535;SDS011;5824;49.336;8.652;2023-05-07T08:40:20;5.30;;;3.60;;
11535;SDS011;5824;49.336;8.652;2023-05-07T08:42:49;5.10;;;3.60;;
11535;SDS011;5824;49.336;8.652;2023-05-07T08:45:17;4.77;;;3.03;;
11535;SDS011;5824;49.336;8.652;2023-05-07T08:47:45;5.00;;;3.63;;
11535;SDS011;5824;49.336;8.652;2023-05-07T08:50:14;4.43;;;3.50;;
11535;SDS011;5824;49.336;8.652;2023-05-07T08:52:40;4.23;;;2.73;;
11535;SDS011;5824;49.336;8.652;2023-05-07T08:55:07;5.30;;;3.10;;
11535;SDS011;5824;49.336;8.652;2023-05-07T08:57:33;4.38;;;3.25;;
11535;SDS011;5824;49.336;8.652;2023-05-07T08:59:59;4.30;;;3.10;;
11535;SDS011;5824;49.336;8.652;2023-05-07T09:02:25;4.03;;;2.80;;
11535;SDS011;5824;49.336;8.652;2023-05-07T09:04:50;5.50;;;3.00;;
11535;SDS011;5824;49.336;8.652;2023-05-07T09:07:16;3.88;;;3.20;;
11535;SDS011;5824;49.336;8.652;2023-05-07T09:09:43;4.78;;;3.17;;
11535;SDS011;5824;49.336;8.652;2023-05-07T09:12:09;3.70;;;2.92;;
11535;SDS011;5824;49.336;8.652;2023-05-07T09:14:35;5.10;;;2.90;;
11535;SDS011;5824;49.336;8.652;2023-05-07T09:17:00;3.90;;;2.80;;
11535;SDS011;5824;49.336;8.652;2023-05-07T09:19:26;3.80;;;2.70;;
11535;SDS011;5824;49.336;8.652;2023-05-07T09:22:00;9.48;;;3.22;;
11535;SDS011;5824;49.336;8.652;2023-05-07T09:24:27;4.43;;;3.17;;
11535;SDS011;5824;49.336;8.652;2023-05-07T09:26:57;4.60;;;2.90;;
11535;SDS011;5824;49.336;8.652;2023-05-07T09:29:23;4.03;;;3.15;;
11535;SDS011;5824;49.336;8.652;2023-05-07T09:31:48;8.27;;;3.58;;
11535;SDS011;5824;49.336;8.652;2023-05-07T09:34:14;4.05;;;3.08;;
11535;SDS011;5824;49.336;8.652;2023-05-07T09:36:39;3.80;;;3.30;;
11535;SDS011;5824;49.336;8.652;2023-05-07T09:39:05;5.38;;;3.63;;
11535;SDS011;5824;49.336;8.652;2023-05-07T09:41:30;5.30;;;3.42;;
11535;SDS011;5824;49.336;8.652;2023-05-07T09:43:57;4.57;;;3.25;;
11535;SDS011;5824;49.336;8.652;2023-05-07T09:46:29;4.03;;;3.47;;
11535;SDS011;5824;49.336;8.652;2023-05-07T09:48:59;6.03;;;3.15;;
11535;SDS011;5824;49.336;8.652;2023-05-07T09:54:13;5.10;;;3.22;;
11535;SDS011;5824;49.336;8.652;2023-05-07T09:56:39;4.25;;;3.33;;
11535;SDS011;5824;49.336;8.652;2023-05-07T09:59:06;5.85;;;3.63;;
11535;SDS011;5824;49.336;8.652;2023-05-07T10:01:33;6.30;;;3.80;;
11535;SDS011;5824;49.336;8.652;2023-05-07T10:04:02;4.47;;;3.50;;
11535;SDS011;5824;49.336;8.652;2023-05-07T10:06:30;7.60;;;3.40;;
11535;SDS011;5824;49.336;8.652;2023-05-07T10:08:56;3.97;;;3.20;;
11535;SDS011;5824;49.336;8.652;2023-05-07T10:11:22;3.83;;;3.20;;
11535;SDS011;5824;49.336;8.652;2023-05-07T10:13:48;5.53;;;3.25;;
11535;SDS011;5824;49.336;8.652;2023-05-07T10:16:14;7.07;;;3.33;;
11535;SDS011;5824;49.336;8.652;2023-05-07T10:18:41;4.97;;;3.35;;
11535;SDS011;5824;49.336;8.652;2023-05-07T10:21:11;5.50;;;3.67;;
11535;SDS011;5824;49.336;8.652;2023-05-07T10:23:41;6.55;;;3.25;;
11535;SDS011;5824;49.336;8.652;2023-05-07T10:26:11;3.60;;;3.00;;
11535;SDS011;5824;49.336;8.652;2023-05-07T10:28:38;4.18;;;2.88;;
11535;SDS011;5824;49.336;8.652;2023-05-07T10:34:10;7.55;;;3.13;;
11535;SDS011;5824;49.336;8.652;2023-05-07T10:36:37;4.07;;;3.03;;
11535;SDS011;5824;49.336;8.652;2023-05-07T10:39:04;4.40;;;3.00;;
11535;SDS011;5824;49.336;8.652;2023-05-07T10:41:31;6.03;;;2.67;;
11535;SDS011;5824;49.336;8.652;2023-05-07T10:43:56;3.70;;;2.97;;
11535;SDS011;5824;49.336;8.652;2023-05-07T10:46:22;4.13;;;2.83;;
11535;SDS011;5824;49.336;8.652;2023-05-07T10:51:26;4.57;;;3.20;;
11535;SDS011;5824;49.336;8.652;2023-05-07T10:54:37;4.80;;;2.90;;
11535;SDS011;5824;49.336;8.652;2023-05-07T10:56:38;4.65;;;2.63;;
11535;SDS011;5824;49.336;8.652;2023-05-07T11:01:49;3.53;;;2.60;;
11535;SDS011;5824;49.336;8.652;2023-05-07T11:04:22;4.38;;;2.33;;
11535;SDS011;5824;49.336;8.652;2023-05-07T11:07:34;5.30;;;2.80;;
11535;SDS011;5824;49.336;8.652;2023-05-07T11:12:16;3.58;;;2.33;;
11535;SDS011;5824;49.336;8.652;2023-05-07T11:15:00;3.58;;;2.30;;
11535;SDS011;5824;49.336;8.652;2023-05-07T11:17:30;4.95;;;2.47;;
11535;SDS011;5824;49.336;8.652;2023-05-07T11:19:57;5.32;;;2.35;;
11535;SDS011;5824;49.336;8.652;2023-05-07T11:25:04;4.13;;;2.60;;
11535;SDS011;5824;49.336;8.652;2023-05-07T11:27:31;2.95;;;2.13;;
11535;SDS011;5824;49.336;8.652;2023-05-07T11:37:43;9.48;;;3.67;;
11535;SDS011;5824;49.336;8.652;2023-05-07T11:40:10;3.17;;;2.70;;
11535;SDS011;5824;49.336;8.652;2023-05-07T11:42:39;4.28;;;2.60;;
11535;SDS011;5824;49.336;8.652;2023-05-07T11:50:16;3.30;;;2.63;;
11535;SDS011;5824;49.336;8.652;2023-05-07T11:52:49;5.55;;;2.70;;
11535;SDS011;5824;49.336;8.652;2023-05-07T11:55:17;5.00;;;2.78;;
11535;SDS011;5824;49.336;8.652;2023-05-07T12:00:19;3.33;;;2.40;;
11535;SDS011;5824;49.336;8.652;2023-05-07T12:02:45;3.53;;;2.53;;
11535;SDS011;5824;49.336;8.652;2023-05-07T12:15:34;4.93;;;2.80;;
11535;SDS011;5824;49.336;8.652;2023-05-07T12:18:00;3.80;;;2.50;;
11535;SDS011;5824;49.336;8.652;2023-05-07T12:20:26;8.30;;;3.38;;
11535;SDS011;5824;49.336;8.652;2023-05-07T12:41:13;3.88;;;2.70;;
11535;SDS011;5824;49.336;8.652;2023-05-07T12:43:39;4.10;;;2.67;;
11535;SDS011;5824;49.336;8.652;2023-05-07T13:01:37;5.07;;;2.95;;
11535;SDS011;5824;49.336;8.652;2023-05-07T13:04:03;3.50;;;2.47;;
11535;SDS011;5824;49.336;8.652;2023-05-07T13:06:29;3.17;;;2.30;;
11535;SDS011;5824;49.336;8.652;2023-05-07T13:11:31;3.50;;;2.55;;
11535;SDS011;5824;49.336;8.652;2023-05-07T13:16:32;6.07;;;3.40;;
11535;SDS011;5824;49.336;8.652;2023-05-07T13:21:34;3.72;;;2.83;;
11535;SDS011;5824;49.336;8.652;2023-05-07T13:24:00;5.82;;;2.83;;
11535;SDS011;5824;49.336;8.652;2023-05-07T13:26:25;5.65;;;2.80;;
11535;SDS011;5824;49.336;8.652;2023-05-07T13:28:52;4.85;;;2.90;;
11535;SDS011;5824;49.336;8.652;2023-05-07T13:36:31;5.03;;;3.08;;
11535;SDS011;5824;49.336;8.652;2023-05-07T13:39:00;4.50;;;3.33;;
11535;SDS011;5824;49.336;8.652;2023-05-07T13:57:14;6.82;;;3.20;;
11535;SDS011;5824;49.336;8.652;2023-05-07T13:59:40;3.70;;;3.13;;
11535;SDS011;5824;49.336;8.652;2023-05-07T14:02:06;3.73;;;3.00;;
11535;SDS011;5824;49.336;8.652;2023-05-07T14:04:31;9.53;;;3.17;;
11535;SDS011;5824;49.336;8.652;2023-05-07T14:09:32;5.85;;;3.65;;
11535;SDS011;5824;49.336;8.652;2023-05-07T14:11:58;6.13;;;3.10;;
11535;SDS011;5824;49.336;8.652;2023-05-07T14:14:25;7.40;;;3.73;;
11535;SDS011;5824;49.336;8.652;2023-05-07T14:21:53;18.27;;;3.30;;
11535;SDS011;5824;49.336;8.652;2023-05-07T14:24:20;6.57;;;3.43;;
11535;SDS011;5824;49.336;8.652;2023-05-07T14:31:56;7.40;;;3.50;;
11535;SDS011;5824;49.336;8.652;2023-05-07T14:36:57;6.20;;;2.97;;
11535;SDS011;5824;49.336;8.652;2023-05-07T14:39:24;8.10;;;3.07;;
11535;SDS011;5824;49.336;8.652;2023-05-07T14:46:54;5.70;;;2.77;;
11535;SDS011;5824;49.336;8.652;2023-05-07T14:49:21;8.27;;;2.80;;
11535;SDS011;5824;49.336;8.652;2023-05-07T14:59:32;5.17;;;3.27;;
11535;SDS011;5824;49.336;8.652;2023-05-07T15:01:58;5.33;;;3.00;;
11535;SDS011;5824;49.336;8.652;2023-05-07T15:04:24;5.93;;;4.00;;
11535;SDS011;5824;49.336;8.652;2023-05-07T15:06:50;6.33;;;4.60;;
11535;SDS011;5824;49.336;8.652;2023-05-07T15:09:15;8.93;;;5.80;;
11535;SDS011;5824;49.336;8.652;2023-05-07T15:16:52;8.07;;;4.00;;
11535;SDS011;5824;49.336;8.652;2023-05-07T15:19:18;4.07;;;3.07;;
11535;SDS011;5824;49.336;8.652;2023-05-07T15:21:43;10.50;;;4.73;;
11535;SDS011;5824;49.336;8.652;2023-05-07T15:24:09;7.10;;;3.70;;
11535;SDS011;5824;49.336;8.652;2023-05-07T15:26:35;10.40;;;3.60;;
11535;SDS011;5824;49.336;8.652;2023-05-07T15:29:00;6.10;;;3.80;;
11535;SDS011;5824;49.336;8.652;2023-05-07T15:39:15;4.83;;;3.80;;
11535;SDS011;5824;49.336;8.652;2023-05-07T15:54:38;5.90;;;3.83;;
11535;SDS011;5824;49.336;8.652;2023-05-07T15:59:57;13.67;;;4.80;;
11535;SDS011;5824;49.336;8.652;2023-05-07T16:07:27;15.33;;;4.97;;
11535;SDS011;5824;49.336;8.652;2023-05-07T16:12:29;8.30;;;4.50;;
11535;SDS011;5824;49.336;8.652;2023-05-07T16:14:55;6.20;;;3.70;;
11535;SDS011;5824;49.336;8.652;2023-05-07T16:56:07;9.30;;;4.30;;
11535;SDS011;5824;49.336;8.652;2023-05-07T17:01:08;4.97;;;3.10;;
11535;SDS011;5824;49.336;8.652;2023-05-07T17:11:40;5.37;;;3.50;;
11535;SDS011;5824;49.336;8.652;2023-05-07T17:14:06;6.30;;;4.57;;
11535;SDS011;5824;49.336;8.652;2023-05-07T17:16:32;6.73;;;4.43;;
11535;SDS011;5824;49.336;8.652;2023-05-07T17:18:57;5.10;;;3.87;;
11535;SDS011;5824;49.336;8.652;2023-05-07T17:21:23;6.10;;;4.10;;
11535;SDS011;5824;49.336;8.652;2023-05-07T17:23:48;6.50;;;4.40;;
11535;SDS011;5824;49.336;8.652;2023-05-07T17:26:14;5.40;;;3.83;;
11535;SDS011;5824;49.336;8.652;2023-05-07T17:28:40;4.47;;;3.70;;
11535;SDS011;5824;49.336;8.652;2023-05-07T17:36:17;6.33;;;4.30;;
11535;SDS011;5824;49.336;8.652;2023-05-07T17:38:43;6.13;;;5.00;;
11535;SDS011;5824;49.336;8.652;2023-05-07T17:41:09;8.20;;;4.93;;
11535;SDS011;5824;49.336;8.652;2023-05-07T17:43:34;6.57;;;5.17;;
11535;SDS011;5824;49.336;8.652;2023-05-07T17:46:00;10.00;;;6.17;;
11535;SDS011;5824;49.336;8.652;2023-05-07T17:48:26;6.60;;;5.10;;
11535;SDS011;5824;49.336;8.652;2023-05-07T17:50:52;7.97;;;5.40;;
11535;SDS011;5824;49.336;8.652;2023-05-07T17:53:17;6.40;;;5.03;;
11535;SDS011;5824;49.336;8.652;2023-05-07T17:58:18;4.80;;;4.30;;
11535;SDS011;5824;49.336;8.652;2023-05-07T18:00:46;15.13;;;4.67;;
11535;SDS011;5824;49.336;8.652;2023-05-07T18:03:12;7.40;;;4.60;;
11535;SDS011;5824;49.336;8.652;2023-05-07T18:05:37;6.53;;;5.20;;
11535;SDS011;5824;49.336;8.652;2023-05-07T18:08:03;6.20;;;5.57;;
11535;SDS011;5824;49.336;8.652;2023-05-07T18:13:06;9.25;;;7.38;;
11535;SDS011;5824;49.336;8.652;2023-05-07T18:15:32;6.90;;;4.93;;
11535;SDS011;5824;49.336;8.652;2023-05-07T18:30:54;5.83;;;3.60;;
11535;SDS011;5824;49.336;8.652;2023-05-07T18:33:20;4.70;;;3.70;;
11535;SDS011;5824;49.336;8.652;2023-05-07T18:35:46;5.80;;;4.57;;
11535;SDS011;5824;49.336;8.652;2023-05-07T18:38:12;5.90;;;4.57;;
11535;SDS011;5824;49.336;8.652;2023-05-07T18:40:37;7.07;;;4.20;;
11535;SDS011;5824;49.336;8.652;2023-05-07T18:43:08;5.20;;;3.37;;
11535;SDS011;5824;49.336;8.652;2023-05-07T18:45:34;5.83;;;3.10;;
11535;SDS011;5824;49.336;8.652;2023-05-07T18:55:51;11.13;;;5.60;;
11535;SDS011;5824;49.336;8.652;2023-05-07T19:06:02;6.23;;;4.93;;
11535;SDS011;5824;49.336;8.652;2023-05-07T19:08:29;8.27;;;4.97;;
11535;SDS011;5824;49.336;8.652;2023-05-07T19:13:28;16.90;;;5.13;;
11535;SDS011;5824;49.336;8.652;2023-05-07T19:23:40;8.70;;;3.97;;